Flight Track Log - Related Links

Times and Time Zones

All times are in EDT time to prevent confusion due to time zone crossing. See the N1069F flight status page for this flight to view local times or setup timezone preferences in your user account.

Time Position Orientation Groundspeed Altitude Reporting Facility
EDT Latitude Longitude Course Direction KTS MPH feet Rate Location/Type
Fri 05:25:25 PM 38.9031 -92.1342 27° Northeast 126 145 4,700  Level Kansas City Center
Fri 05:26:26 PM 38.9372 -92.1111 28° Northeast 132 152 5,600 823 Climbing Kansas City Center
Fri 05:27:29 PM 38.9725 -92.0886 26° Northeast 137 158 6,400 726 Climbing Kansas City Center
Fri 05:28:00 PM 39.0331 -92.0023 34° Northeast  Level FlightAware Approximate
Fri 05:28:30 PM 38.9986 -92.0544 45° Northeast 134 154 7,100  Level Kansas City Center
Fri 05:29:00 PM 39.0708 -91.9693 34° Northeast  Level FlightAware Approximate
Fri 05:29:33 PM 39.0303 -92.0225 38° Northeast 138 159 7,000  Level Kansas City Center
Fri 05:30:37 PM 39.0700 -91.9908 32° Northeast 154 177 7,000  Level Kansas City Center
Fri 05:31:37 PM 39.1089 -91.9592 32° Northeast 161 185 7,000  Level Kansas City Center
Fri 05:32:38 PM 39.1542 -91.9172 36° Northeast 165 190 7,000  Level Kansas City Center
Fri 05:33:41 PM 39.1922 -91.8833 35° Northeast 167 192 7,000  Level Kansas City Center
Fri 05:34:44 PM 39.2306 -91.8478 36° Northeast 167 192 7,000  Level Kansas City Center
Fri 05:35:44 PM 39.2667 -91.8158 34° Northeast 167 192 7,000  Level Kansas City Center
Fri 05:36:48 PM 39.3042 -91.7817 35° Northeast 166 191 7,000  Level Kansas City Center
Fri 05:37:48 PM 39.3492 -91.7400 36° Northeast 166 191 7,000  Level Kansas City Center
Fri 05:38:53 PM 39.3864 -91.7058 35° Northeast 166 191 7,000  Level Kansas City Center
Fri 05:39:53 PM 39.4272 -91.6675 36° Northeast 171 197 7,000  Level Kansas City Center
Fri 05:40:56 PM 39.4661 -91.6322 35° Northeast 171 197 7,000  Level Kansas City Center
Fri 05:41:57 PM 39.5047 -91.5969 35° Northeast 170 196 7,000  Level Kansas City Center
Fri 05:43:00 PM 39.5469 -91.5575 36° Northeast 168 193 7,000  Level Kansas City Center
Fri 05:44:01 PM 39.5867 -91.5228 34° Northeast 171 197 7,000  Level Kansas City Center
Fri 05:45:05 PM 39.6258 -91.4856 36° Northeast 173 199 7,000  Level Kansas City Center
Fri 05:46:06 PM 39.6650 -91.4494 35° Northeast 174 200 7,000  Level Kansas City Center
Fri 05:47:09 PM 39.7044 -91.4125 36° Northeast 175 201 7,000  Level Kansas City Center
Fri 05:48:10 PM 39.7514 -91.3703 35° Northeast 174 200 7,000  Level Kansas City Center
Fri 05:49:11 PM 39.7903 -91.3336 36° Northeast 174 200 7,000  Level Kansas City Center
Fri 05:50:15 PM 39.8303 -91.2978 35° Northeast 175 201 7,000  Level Kansas City Center
Fri 05:51:16 PM 39.8669 -91.2589 39° Northeast 174 200 7,000  Level Kansas City Center
Fri 05:52:17 PM 39.8992 -91.2111 49° Northeast 175 201 7,000  Level Kansas City Center
Fri 05:53:21 PM 39.9358 -91.1544 50° Northeast 173 199 7,000  Level Kansas City Center
Fri 05:54:21 PM 39.9678 -91.1067 49° Northeast 175 201 7,000  Level Kansas City Center
Fri 05:55:24 PM 40.0011 -91.0597 47° Northeast 177 204 7,000  Level Kansas City Center
Fri 05:56:25 PM 40.0342 -91.0125 48° Northeast 177 204 7,000  Level Kansas City Center
Fri 05:57:29 PM 40.0661 -90.9631 50° Northeast 178 205 7,000  Level Kansas City Center
Fri 05:58:30 PM 40.1075 -90.9050 47° Northeast 179 206 7,000  Level Kansas City Center
Fri 05:59:34 PM 40.1394 -90.8544 50° Northeast 180 207 7,000  Level Kansas City Center
Fri 06:00:08 PM 40.1578 -90.8281 48° Northeast 177 204 7,000  Level Chicago Center
Fri 06:01:10 PM 40.1931 -90.7769 48° Northeast 180 207 7,000  Level Chicago Center
Fri 06:02:12 PM 40.2275 -90.7286 47° Northeast 181 208 7,000  Level Chicago Center
Fri 06:03:14 PM 40.2606 -90.6794 49° Northeast 180 207 7,000  Level Chicago Center
Fri 06:04:16 PM 40.2939 -90.6297 49° Northeast 180 207 7,000  Level Chicago Center
Fri 06:05:18 PM 40.3344 -90.5694 49° Northeast 182 209 7,000  Level Chicago Center
Fri 06:06:20 PM 40.3689 -90.5197 48° Northeast 184 212 7,000  Level Chicago Center
Fri 06:07:22 PM 40.4025 -90.4700 48° Northeast 183 211 7,000  Level Chicago Center
Fri 06:08:24 PM 40.4353 -90.4194 50° Northeast 182 209 7,000  Level Chicago Center
Fri 06:09:27 PM 40.4686 -90.3686 49° Northeast 184 212 7,000  Level Chicago Center
Fri 06:10:29 PM 40.5025 -90.3197 48° Northeast 181 208 7,000  Level Chicago Center
Fri 06:11:31 PM 40.5583 -90.2964 18° North 187 215 7,000  Level Chicago Center
Fri 06:12:33 PM 40.5953 -90.2519 42° Northeast 183 211 7,000  Level Chicago Center
Fri 06:13:35 PM 40.6314 -90.2053 44° Northeast 182 209 7,000  Level Chicago Center
Fri 06:14:37 PM 40.6700 -90.1628 40° Northeast 181 208 7,000  Level Chicago Center
Fri 06:15:39 PM 40.7083 -90.1181 41° Northeast 182 209 7,000  Level Chicago Center
Fri 06:16:41 PM 40.7467 -90.0742 41° Northeast 182 209 7,000  Level Chicago Center
Fri 06:17:43 PM 40.7850 -90.0292 42° Northeast 182 209 7,000  Level Chicago Center
Fri 06:18:45 PM 40.8317 -89.9756 41° Northeast 184 212 7,000  Level Chicago Center
Fri 06:19:47 PM 40.8706 -89.9303 41° Northeast 184 212 7,000  Level Chicago Center
Fri 06:20:49 PM 40.9086 -89.8844 42° Northeast 184 212 7,000  Level Chicago Center
Fri 06:21:51 PM 40.9483 -89.8386 41° Northeast 187 215 7,000  Level Chicago Center
Fri 06:22:53 PM 40.9875 -89.7919 42° Northeast 188 216 7,000  Level Chicago Center
Fri 06:23:56 PM 41.0269 -89.7458 41° Northeast 189 217 7,000  Level Chicago Center
Fri 06:24:58 PM 41.0667 -89.7008 40° Northeast 188 216 7,000 48 Level Chicago Center
Fri 06:26:00 PM 41.1131 -89.6450 42° Northeast 188 216 7,100 48 Climbing Chicago Center
Fri 06:27:02 PM 41.1531 -89.5992 41° Northeast 189 217 7,100  Level Chicago Center
Fri 06:28:04 PM 41.1850 -89.5444 52° Northeast 188 216 7,100  Level Chicago Center
Fri 06:29:06 PM 41.2117 -89.4819 60° Northeast 190 219 7,100  Level Chicago Center
Fri 06:30:08 PM 41.2400 -89.4211 58° Northeast 192 221 7,100 -194 Level Chicago Center
Fri 06:31:10 PM 41.2686 -89.3581 59° Northeast 196 226 6,700 -387 Descending Chicago Center
Fri 06:32:12 PM 41.2975 -89.2944 59° Northeast 200 230 6,300 -435 Descending Chicago Center
Fri 06:33:14 PM 41.3319 -89.2206 58° Northeast 195 224 5,800 -484 Descending Chicago Center
Fri 06:34:16 PM 41.3594 -89.1639 57° Northeast 191 220 5,300 -339 Descending Chicago Center
Fri 06:35:18 PM 41.3861 -89.1056 59° Northeast 186 214 5,100 -145 Descending Chicago Center
Fri 06:36:20 PM 41.4100 -89.0494 60° Northeast 179 206 5,000 -48 Descending Chicago Center
Fri 06:37:22 PM 41.4436 -88.9858 55° Northeast 176 203 5,000  Level Chicago Center
Fri 06:38:25 PM 41.4697 -88.9286 59° Northeast 178 205 5,000  Level Chicago Center
Fri 06:39:27 PM 41.4950 -88.8728 59° Northeast 177 204 5,000  Level Chicago Center
Fri 06:40:29 PM 41.5211 -88.8175 58° Northeast 177 204 5,000  Level Chicago Center
Fri 06:41:31 PM 41.5458 -88.7622 59° Northeast 175 201 5,000  Level Chicago Center
Fri 06:42:33 PM 41.5764 -88.6953 59° Northeast 175 201 5,000  Level Chicago Center
Fri 06:43:35 PM 41.6022 -88.6392 58° Northeast 177 204 5,000  Level Chicago Center
Fri 06:44:37 PM 41.6303 -88.5858 55° Northeast 177 204 5,000 -339 Level Chicago Center
Fri 06:45:39 PM 41.6664 -88.5356 46° Northeast 183 211 4,300 -629 Descending Chicago Center
Fri 06:46:41 PM 41.7033 -88.4911 42° Northeast 182 209 3,700 -581 Descending Chicago Center
Fri 06:47:43 PM 41.7519 -88.4647 22° Northeast 186 214 3,100 -290 Descending Chicago Center
Fri 06:48:45 PM 41.8075 -88.4372 20° North 183 211 3,100 -145 Level Chicago Center
Fri 06:49:47 PM 41.8389 -88.3881 49° Northeast 177 204 2,800 -387 Descending Chicago Center
Fri 06:50:49 PM 41.8694 -88.3386 50° Northeast 175 201 2,300 -432 Descending Chicago Center
Fri 06:51:52 PM 41.8992 -88.2917 50° Northeast 171 197 1,900 -288 Descending Chicago Center
Fri 06:52:54 PM 41.9308 -88.2731 24° Northeast 143 165 1,700 -242 Descending Chicago Center
Fri 06:53:56 PM 41.9356 -88.2450 77° East 118 136 1,400 -242 Descending Chicago Center
Fri 06:54:58 PM 41.9122 -88.2367 165° South 109 125 1,200 -194 Descending Chicago Center

Login

Don't have an account? Register now (free) for customized features, flight alerts, and more!